createdAt,value
2018-05-23T00:01:02.703Z,98422.88
2018-05-23T00:03:30.206Z,98425.15
2018-05-23T00:05:57.673Z,98419.92
2018-05-23T00:08:25.163Z,98423.38
2018-05-23T00:10:52.630Z,98421.42
2018-05-23T00:13:20.171Z,98418.90
2018-05-23T00:15:47.730Z,98422.96
2018-05-23T00:18:15.210Z,98427.75
2018-05-23T00:20:42.670Z,98428.33
2018-05-23T00:23:10.154Z,98423.67
2018-05-23T00:25:37.661Z,98427.02
2018-05-23T00:28:05.328Z,98424.38
2018-05-23T00:30:32.799Z,98425.02
2018-05-23T00:33:00.346Z,98427.69
2018-05-23T00:35:27.839Z,98428.47
2018-05-23T00:37:55.342Z,98428.44
2018-05-23T00:40:22.828Z,98427.27
2018-05-23T00:42:50.378Z,98432.17
2018-05-23T00:45:17.880Z,98426.28
2018-05-23T00:47:45.390Z,98425.05
2018-05-23T00:50:12.945Z,98422.16
2018-05-23T00:52:40.418Z,98414.73
2018-05-23T00:55:19.850Z,98421.55
2018-05-23T00:57:47.315Z,98425.73
2018-05-23T01:00:14.803Z,98417.05
2018-05-23T01:02:42.270Z,98419.64
2018-05-23T01:05:09.755Z,98410.98
2018-05-23T01:07:37.242Z,98408.13
2018-05-23T01:10:04.727Z,98407.07
2018-05-23T01:12:32.254Z,98404.28
2018-05-23T01:14:59.831Z,98401.75
2018-05-23T01:17:27.378Z,98401.45
2018-05-23T01:19:55.042Z,98405.23
2018-05-23T01:22:22.502Z,98400.65
2018-05-23T01:24:50.040Z,98404.06
2018-05-23T01:27:17.523Z,98413.20
2018-05-23T01:29:45.002Z,98406.37
2018-05-23T01:32:12.534Z,98413.08
2018-05-23T01:34:40.050Z,98414.00
2018-05-23T01:37:07.543Z,98417.75
2018-05-23T01:39:35.059Z,98420.44
2018-05-23T01:42:02.555Z,98423.34
2018-05-23T01:44:30.053Z,98424.56
2018-05-23T01:46:57.597Z,98422.24
2018-05-23T01:49:27.026Z,98422.47
2018-05-23T01:51:54.487Z,98428.47
2018-05-23T01:54:21.979Z,98439.34
2018-05-23T01:56:49.439Z,98442.27
2018-05-23T01:59:16.923Z,98449.00
2018-05-23T02:01:44.436Z,98450.10
2018-05-23T02:04:12.080Z,98443.23
2018-05-23T02:06:39.608Z,98447.03
2018-05-23T02:09:07.082Z,98455.75
2018-05-23T02:11:34.570Z,98456.52
2018-05-23T02:14:03.492Z,98456.52
2018-05-23T02:16:30.985Z,98455.75
2018-05-23T02:18:58.475Z,98455.98
2018-05-23T02:21:25.984Z,98463.63
2018-05-23T02:23:53.442Z,98452.37
2018-05-23T02:26:20.994Z,98453.10
2018-05-23T02:28:48.496Z,98454.17
2018-05-23T02:31:16.016Z,98458.70
2018-05-23T02:33:43.474Z,98462.67
2018-05-23T02:36:10.964Z,98461.28
2018-05-23T02:38:38.534Z,98471.09
2018-05-23T02:41:06.151Z,98463.50
2018-05-23T02:43:33.614Z,98467.05
2018-05-23T02:46:01.147Z,98468.48
2018-05-23T02:48:28.634Z,98479.94
2018-05-23T02:50:56.123Z,98473.08
2018-05-23T02:53:23.659Z,98473.12
2018-05-23T02:55:51.231Z,98469.63
2018-05-23T02:58:18.768Z,98476.83
2018-05-23T03:00:46.255Z,98475.52
2018-05-23T03:03:13.778Z,98471.63
2018-05-23T03:05:41.239Z,98479.39
2018-05-23T03:08:08.726Z,98481.71
2018-05-23T03:10:36.203Z,98480.75
2018-05-23T03:13:03.702Z,98489.84
2018-05-23T03:15:31.177Z,98491.02
2018-05-23T03:17:58.743Z,98492.33
2018-05-23T03:20:26.286Z,98491.31
2018-05-23T03:22:53.778Z,98497.81
2018-05-23T03:25:21.243Z,98503.08
2018-05-23T03:27:48.727Z,98502.42
2018-05-23T03:30:16.219Z,98504.49
2018-05-23T03:32:43.706Z,98504.57
2018-05-23T03:35:11.248Z,98503.25
2018-05-23T03:37:38.771Z,98505.70
2018-05-23T03:40:06.235Z,98504.79
2018-05-23T03:42:33.732Z,98506.84
2018-05-23T03:45:01.285Z,98506.75
2018-05-23T03:47:28.772Z,98502.80
2018-05-23T03:49:56.295Z,98498.61
2018-05-23T03:52:23.868Z,98500.95
2018-05-23T03:54:51.337Z,98501.08
2018-05-23T03:57:18.831Z,98503.06
2018-05-23T03:59:58.206Z,98503.98
2018-05-23T04:02:37.451Z,98503.48
2018-05-23T04:05:16.870Z,98500.08
2018-05-23T04:07:44.351Z,98510.38
2018-05-23T04:10:11.814Z,98507.84
2018-05-23T04:12:39.318Z,98512.56
2018-05-23T04:15:06.807Z,98506.22
2018-05-23T04:17:34.285Z,98505.38
2018-05-23T04:20:01.831Z,98508.89
2018-05-23T04:22:29.314Z,98507.53
2018-05-23T04:24:56.902Z,98511.61
2018-05-23T04:27:24.379Z,98510.05
2018-05-23T04:29:51.871Z,98511.44
2018-05-23T04:32:19.354Z,98518.92
2018-05-23T04:34:46.818Z,98518.14
2018-05-23T04:37:14.307Z,98511.41
2018-05-23T04:39:41.775Z,98516.38
2018-05-23T04:42:09.259Z,98520.89
2018-05-23T04:44:36.751Z,98521.45
2018-05-23T04:47:04.221Z,98524.83
2018-05-23T04:49:31.747Z,98526.16
2018-05-23T04:51:59.210Z,98527.34
2018-05-23T04:54:26.699Z,98534.38
2018-05-23T04:56:55.095Z,98542.34
2018-05-23T04:59:22.580Z,98546.30
2018-05-23T05:01:50.055Z,98550.45
2018-05-23T05:04:17.603Z,98552.69
2018-05-23T05:06:45.143Z,98553.62
2018-05-23T05:09:12.631Z,98559.87
2018-05-23T05:11:40.102Z,98560.19
2018-05-23T05:14:07.603Z,98561.65
2018-05-23T05:16:35.072Z,98564.79
2018-05-23T05:19:02.587Z,98565.88
2018-05-23T05:21:30.046Z,98566.22
2018-05-23T05:23:57.534Z,98579.66
2018-05-23T05:26:25.096Z,98578.97
2018-05-23T05:28:52.691Z,98582.44
2018-05-23T05:31:20.146Z,98588.09
2018-05-23T05:33:47.640Z,98589.61
2018-05-23T05:36:15.104Z,98594.67
2018-05-23T05:38:42.673Z,98598.10
2018-05-23T05:41:10.183Z,98595.96
2018-05-23T05:43:37.683Z,98595.11
2018-05-23T05:46:05.218Z,98600.88
2018-05-23T05:48:32.754Z,98596.80
2018-05-23T05:51:00.315Z,98595.66
2018-05-23T05:53:27.882Z,98599.84
2018-05-23T05:55:55.366Z,98602.50
2018-05-23T05:58:22.830Z,98605.98
2018-05-23T06:00:50.311Z,98616.44
2018-05-23T06:03:17.779Z,98607.22
2018-05-23T06:05:45.263Z,98610.03
2018-05-23T06:08:12.731Z,98612.78
2018-05-23T06:10:40.282Z,98617.72
2018-05-23T06:13:07.847Z,98622.02
2018-05-23T06:15:35.326Z,98621.00
2018-05-23T06:18:02.782Z,98619.07
2018-05-23T06:20:30.272Z,98618.70
2018-05-23T06:22:57.755Z,98618.58
2018-05-23T06:25:25.263Z,98619.59
2018-05-23T06:27:52.795Z,98625.09
2018-05-23T06:30:20.334Z,98622.02
2018-05-23T06:32:47.782Z,98627.80
2018-05-23T06:35:15.327Z,98629.98
2018-05-23T06:37:42.834Z,98632.38
2018-05-23T06:40:10.331Z,98635.45
2018-05-23T06:42:37.828Z,98640.02
2018-05-23T06:45:05.344Z,98634.06
2018-05-23T06:47:32.858Z,98634.27
2018-05-23T06:50:00.358Z,98631.03
2018-05-23T06:52:27.846Z,98635.77
2018-05-23T06:54:55.337Z,98635.94
2018-05-23T06:57:22.821Z,98640.57
2018-05-23T06:59:50.319Z,98640.12
2018-05-23T07:02:17.806Z,98646.23
2018-05-23T07:04:45.267Z,98646.48
2018-05-23T07:07:12.839Z,98647.89
2018-05-23T07:09:40.325Z,98651.28
2018-05-23T07:12:07.816Z,98658.20
2018-05-23T07:14:36.321Z,98662.08
2018-05-23T07:17:03.806Z,98662.97
2018-05-23T07:19:31.274Z,98661.02
2018-05-23T07:21:58.823Z,98667.05
2018-05-23T07:24:26.287Z,98670.89
2018-05-23T07:26:53.774Z,98671.73
2018-05-23T07:29:21.259Z,98669.81
2018-05-23T07:31:48.788Z,98668.95
2018-05-23T07:34:16.300Z,98668.19
2018-05-23T07:36:43.806Z,98668.51
2018-05-23T07:39:11.293Z,98670.32
2018-05-23T07:41:38.810Z,98673.62
2018-05-23T07:44:06.292Z,98669.41
2018-05-23T07:46:33.779Z,98672.56
2018-05-23T07:49:01.327Z,98670.70
2018-05-23T07:51:28.902Z,98674.58
2018-05-23T07:53:56.441Z,98671.98
2018-05-23T07:56:23.955Z,98670.95
2018-05-23T07:58:51.446Z,98676.03
2018-05-23T08:01:18.919Z,98675.37
2018-05-23T08:03:46.431Z,98682.70
2018-05-23T08:06:13.908Z,98677.61
2018-05-23T08:08:41.444Z,98681.46
2018-05-23T08:11:08.911Z,98685.41
2018-05-23T08:13:36.423Z,98684.60
2018-05-23T08:16:03.995Z,98684.39
2018-05-23T08:18:31.555Z,98679.38
2018-05-23T08:20:59.042Z,98680.63
2018-05-23T08:23:26.610Z,98676.02
2018-05-23T08:25:54.090Z,98685.85
2018-05-23T08:28:21.574Z,98686.89
2018-05-23T08:30:49.037Z,98684.89
2018-05-23T08:33:16.603Z,98689.97
2018-05-23T08:35:44.099Z,98686.21
2018-05-23T08:38:11.622Z,98688.72
2018-05-23T08:40:39.117Z,98695.01
2018-05-23T08:43:06.743Z,98693.26
2018-05-23T08:45:34.230Z,98691.22
2018-05-23T08:48:01.723Z,98689.05
2018-05-23T08:50:29.215Z,98684.96
2018-05-23T08:52:56.698Z,98691.09
2018-05-23T08:55:24.175Z,98692.19
2018-05-23T08:57:51.695Z,98688.48
2018-05-23T09:00:19.188Z,98693.45
2018-05-23T09:02:46.711Z,98689.52
2018-05-23T09:05:14.187Z,98699.59
2018-05-23T09:07:41.683Z,98697.92
2018-05-23T09:10:09.186Z,98694.66
2018-05-23T09:12:36.808Z,98698.13
2018-05-23T09:15:04.164Z,98696.21
2018-05-23T09:17:31.667Z,98697.88
2018-05-23T09:19:59.159Z,98699.48
2018-05-23T09:22:26.638Z,98697.44
2018-05-23T09:24:54.135Z,98704.61
2018-05-23T09:27:22.595Z,98695.68
2018-05-23T09:29:50.169Z,98700.36
2018-05-23T09:32:17.689Z,98692.41
2018-05-23T09:34:45.222Z,98692.87
2018-05-23T09:37:12.685Z,98692.70
2018-05-23T09:39:40.234Z,98693.80
2018-05-23T09:42:07.704Z,98691.13
2018-05-23T09:44:35.209Z,98680.17
2018-05-23T09:47:02.693Z,98688.25
2018-05-23T09:49:30.184Z,98687.47
2018-05-23T09:51:57.673Z,98687.48
2018-05-23T09:54:25.198Z,98683.19
2018-05-23T09:56:52.694Z,98678.55
2018-05-23T09:59:20.236Z,98680.13
2018-05-23T10:01:47.754Z,98677.84
2018-05-23T10:04:15.268Z,98678.83
2018-05-23T10:06:42.906Z,98679.09
2018-05-23T10:09:10.427Z,98682.02
2018-05-23T10:11:38.012Z,98683.66
2018-05-23T10:14:05.566Z,98679.88
2018-05-23T10:16:33.040Z,98687.16
2018-05-23T10:19:00.546Z,98673.91
2018-05-23T10:21:28.023Z,98682.67
2018-05-23T10:23:55.525Z,98677.31
2018-05-23T10:26:23.010Z,98675.84
2018-05-23T10:28:50.493Z,98678.94
2018-05-23T10:31:17.979Z,98674.27
2018-05-23T10:33:45.456Z,98675.59
2018-05-23T10:36:12.958Z,98678.70
2018-05-23T10:38:40.508Z,98675.82
2018-05-23T10:41:07.966Z,98677.38
2018-05-23T10:43:35.429Z,98673.75
2018-05-23T10:46:02.914Z,98669.78
2018-05-23T10:48:30.459Z,98666.15
2018-05-23T10:50:57.954Z,98669.85
2018-05-23T10:53:29.400Z,98664.53
2018-05-23T10:55:56.939Z,98664.05
2018-05-23T10:58:24.691Z,98658.94
2018-05-23T11:00:52.215Z,98657.58
2018-05-23T11:03:19.734Z,98657.09
2018-05-23T11:05:47.340Z,98652.20
2018-05-23T11:08:17.251Z,98653.65
2018-05-23T11:10:44.873Z,98654.73
2018-05-23T11:13:15.179Z,98649.30
2018-05-23T11:15:42.693Z,98648.87
2018-05-23T11:18:10.186Z,98649.80
2018-05-23T11:20:37.857Z,98644.15
2018-05-23T11:23:05.463Z,98634.47
2018-05-23T11:25:32.983Z,98633.58
2018-05-23T11:28:00.450Z,98635.25
2018-05-23T11:30:27.975Z,98632.77
2018-05-23T11:32:55.480Z,98626.31
2018-05-23T11:35:22.983Z,98627.36
2018-05-23T11:37:50.503Z,98621.50
2018-05-23T11:40:17.986Z,98623.36
2018-05-23T11:42:45.482Z,98621.09
2018-05-23T11:45:12.955Z,98620.21
2018-05-23T11:47:40.501Z,98616.65
2018-05-23T11:50:08.008Z,98617.06
2018-05-23T11:52:35.626Z,98616.96
2018-05-23T11:55:03.171Z,98616.13
2018-05-23T11:57:30.730Z,98609.22
2018-05-23T11:59:59.275Z,98606.44
2018-05-23T12:02:26.768Z,98609.66
2018-05-23T12:04:54.238Z,98601.25
2018-05-23T12:07:21.873Z,98605.36
2018-05-23T12:09:49.456Z,98596.80
2018-05-23T12:12:16.955Z,98593.25
2018-05-23T12:14:44.663Z,98593.73
2018-05-23T12:17:12.206Z,98588.59
2018-05-23T12:19:39.867Z,98592.20
2018-05-23T12:22:07.355Z,98591.39
2018-05-23T12:24:34.866Z,98593.48
2018-05-23T12:27:03.410Z,98589.21
2018-05-23T12:29:30.878Z,98584.95
2018-05-23T12:31:58.385Z,98589.48
2018-05-23T12:34:25.855Z,98580.33
2018-05-23T12:36:53.351Z,98585.43
2018-05-23T12:39:21.038Z,98581.38
2018-05-23T12:41:48.690Z,98580.30
2018-05-23T12:44:16.170Z,98582.75
2018-05-23T12:46:43.742Z,98584.78
2018-05-23T12:49:11.386Z,98584.34
2018-05-23T12:51:38.946Z,98587.30
2018-05-23T12:54:06.599Z,98580.31
2018-05-23T12:56:34.091Z,98580.86
2018-05-23T12:59:01.717Z,98577.09
2018-05-23T13:01:29.211Z,98579.52
2018-05-23T13:03:56.715Z,98577.13
2018-05-23T13:06:24.239Z,98568.66
2018-05-23T13:08:51.812Z,98570.13
2018-05-23T13:11:19.343Z,98575.84
2018-05-23T13:13:49.487Z,98569.99
2018-05-23T13:16:17.331Z,98568.18
2018-05-23T13:18:47.523Z,98565.52
2018-05-23T13:21:17.354Z,98561.28
2018-05-23T13:23:44.987Z,98555.64
2018-05-23T13:26:12.476Z,98552.23
2018-05-23T13:28:40.195Z,98555.71
2018-05-23T13:31:07.769Z,98547.03
2018-05-23T13:33:35.282Z,98547.02
2018-05-23T13:36:02.751Z,98546.47
2018-05-23T13:38:30.240Z,98547.58
2018-05-23T13:40:57.703Z,98547.42
2018-05-23T13:43:25.203Z,98545.63
2018-05-23T13:45:52.667Z,98541.35
2018-05-23T13:48:20.251Z,98542.20
2018-05-23T13:50:47.807Z,98546.49
2018-05-23T13:53:15.314Z,98544.78
2018-05-23T13:55:43.058Z,98544.56
2018-05-23T13:58:10.566Z,98540.81
2018-05-23T14:00:38.027Z,98539.98
2018-05-23T14:03:05.530Z,98545.44
2018-05-23T14:05:33.058Z,98537.71
2018-05-23T14:08:00.522Z,98537.73
2018-05-23T14:10:28.220Z,98541.17
2018-05-23T14:12:55.849Z,98541.34
2018-05-23T14:15:23.431Z,98544.48
2018-05-23T14:17:50.895Z,98541.02
2018-05-23T14:20:18.436Z,98541.20
2018-05-23T14:22:45.991Z,98548.51
2018-05-23T14:25:13.474Z,98551.64
2018-05-23T14:27:41.000Z,98551.97
2018-05-23T14:30:08.486Z,98549.36
2018-05-23T14:32:35.987Z,98543.47
2018-05-23T14:35:03.496Z,98544.87
2018-05-23T14:37:30.957Z,98539.39
2018-05-23T14:39:58.447Z,98536.63
2018-05-23T14:42:26.678Z,98538.75
2018-05-23T14:44:54.227Z,98545.04
2018-05-23T14:47:21.706Z,98551.27
2018-05-23T14:49:49.259Z,98544.19
2018-05-23T14:52:16.741Z,98539.11
2018-05-23T14:54:44.302Z,98542.55
2018-05-23T14:57:11.766Z,98541.42
2018-05-23T14:59:39.323Z,98541.78
2018-05-23T15:02:06.875Z,98543.24
2018-05-23T15:04:34.375Z,98544.91
2018-05-23T15:07:02.267Z,98549.18
2018-05-23T15:09:29.877Z,98549.80
2018-05-23T15:11:57.382Z,98550.38
2018-05-23T15:14:25.002Z,98551.63
2018-05-23T15:16:52.411Z,98561.44
2018-05-23T15:19:19.908Z,98564.94
2018-05-23T15:21:47.383Z,98561.20
2018-05-23T15:24:14.870Z,98564.78
2018-05-23T15:26:42.343Z,98564.02
2018-05-23T15:29:09.814Z,98565.12
2018-05-23T15:31:37.362Z,98574.00
2018-05-23T15:34:04.827Z,98578.80
2018-05-23T15:36:32.335Z,98570.80
2018-05-23T15:39:00.722Z,98570.16
2018-05-23T15:41:28.226Z,98572.66
2018-05-23T15:43:55.690Z,98564.45
2018-05-23T15:46:23.223Z,98568.42
2018-05-23T15:48:50.687Z,98566.41
2018-05-23T15:51:18.447Z,98568.34
2018-05-23T15:53:45.903Z,98565.33
2018-05-23T15:56:13.647Z,98569.23
2018-05-23T15:58:41.130Z,98562.06
2018-05-23T16:01:09.103Z,98562.31
2018-05-23T16:03:36.575Z,98552.56
2018-05-23T16:06:04.063Z,98560.30
2018-05-23T16:08:31.563Z,98556.23
2018-05-23T16:10:59.139Z,98559.58
2018-05-23T16:13:26.690Z,98555.09
2018-05-23T16:15:54.195Z,98553.83
2018-05-23T16:18:21.681Z,98551.90
2018-05-23T16:20:49.200Z,98549.48
2018-05-23T16:23:16.724Z,98550.63
2018-05-23T16:25:44.219Z,98545.04
2018-05-23T16:28:11.707Z,98546.41
2018-05-23T16:30:39.211Z,98549.38
2018-05-23T16:33:06.759Z,98549.97
2018-05-23T16:35:34.265Z,98549.00
2018-05-23T16:38:01.791Z,98553.28
2018-05-23T16:40:29.343Z,98550.25
2018-05-23T16:42:56.893Z,98551.99
2018-05-23T16:45:24.457Z,98544.03
2018-05-23T16:47:56.653Z,98555.03
2018-05-23T16:50:24.379Z,98545.80
2018-05-23T16:52:51.984Z,98551.68
2018-05-23T16:55:19.461Z,98552.02
2018-05-23T16:57:46.998Z,98549.09
2018-05-23T17:00:14.470Z,98549.56
2018-05-23T17:02:41.954Z,98546.09
2018-05-23T17:05:09.421Z,98547.70
2018-05-23T17:07:36.917Z,98552.81
2018-05-23T17:10:04.433Z,98561.31
2018-05-23T17:12:32.016Z,98557.03
2018-05-23T17:14:59.395Z,98557.42
2018-05-23T17:17:27.240Z,98557.24
2018-05-23T17:19:54.671Z,98552.30
2018-05-23T17:22:22.154Z,98560.28
2018-05-23T17:24:49.697Z,98553.34
2018-05-23T17:27:17.298Z,98562.03
2018-05-23T17:29:44.726Z,98567.20
2018-05-23T17:32:12.213Z,98571.89
2018-05-23T17:34:39.756Z,98566.19
2018-05-23T17:37:07.525Z,98569.73
2018-05-23T17:39:35.041Z,98565.20
2018-05-23T17:42:02.535Z,98567.61
2018-05-23T17:44:30.003Z,98574.55
2018-05-23T17:46:57.495Z,98581.42
2018-05-23T17:49:25.000Z,98579.84
2018-05-23T17:51:52.491Z,98579.67
2018-05-23T17:54:19.954Z,98590.31
2018-05-23T17:56:47.490Z,98595.10
2018-05-23T17:59:14.958Z,98592.25
2018-05-23T18:01:42.422Z,98594.27
2018-05-23T18:04:09.906Z,98595.20
2018-05-23T18:06:37.383Z,98603.44
2018-05-23T18:09:05.666Z,98609.03
2018-05-23T18:11:33.121Z,98611.25
2018-05-23T18:14:00.618Z,98604.06
2018-05-23T18:16:28.089Z,98613.19
2018-05-23T18:18:55.577Z,98616.59
2018-05-23T18:21:23.054Z,98625.47
2018-05-23T18:23:50.576Z,98628.53
2018-05-23T18:26:18.137Z,98626.80
2018-05-23T18:28:45.654Z,98629.13
2018-05-23T18:31:13.129Z,98636.09
2018-05-23T18:33:40.626Z,98626.58
2018-05-23T18:36:08.097Z,98640.70
2018-05-23T18:38:35.587Z,98643.05
2018-05-23T18:41:03.049Z,98640.22
2018-05-23T18:43:30.615Z,98643.36
2018-05-23T18:45:58.034Z,98653.19
2018-05-23T18:48:25.523Z,98647.64
2018-05-23T18:50:56.822Z,98648.19
2018-05-23T18:53:24.329Z,98652.21
2018-05-23T18:55:51.789Z,98646.73
2018-05-23T18:58:19.274Z,98638.88
2018-05-23T19:00:46.739Z,98639.42
2018-05-23T19:03:14.226Z,98640.47
2018-05-23T19:05:41.758Z,98637.94
2018-05-23T19:08:09.270Z,98640.83
2018-05-23T19:10:36.738Z,98632.98
2018-05-23T19:13:04.246Z,98636.66
2018-05-23T19:15:31.754Z,98633.90
2018-05-23T19:17:59.224Z,98640.37
2018-05-23T19:20:30.394Z,98642.48
2018-05-23T19:22:57.877Z,98644.44
2018-05-23T19:25:25.378Z,98645.52
2018-05-23T19:27:52.854Z,98651.81
2018-05-23T19:30:20.509Z,98652.82
2018-05-23T19:32:47.982Z,98653.50
2018-05-23T19:35:15.484Z,98656.82
2018-05-23T19:37:42.988Z,98656.18
2018-05-23T19:40:10.508Z,98659.50
2018-05-23T19:42:38.000Z,98665.52
2018-05-23T19:45:05.497Z,98660.95
2018-05-23T19:47:32.978Z,98672.03
2018-05-23T19:50:00.478Z,98666.55
2018-05-23T19:52:27.958Z,98668.09
2018-05-23T19:54:55.462Z,98671.66
2018-05-23T19:57:22.930Z,98675.63
2018-05-23T19:59:50.501Z,98679.77
2018-05-23T20:02:17.972Z,98683.66
2018-05-23T20:04:45.498Z,98685.14
2018-05-23T20:07:12.989Z,98681.23
2018-05-23T20:09:40.480Z,98684.86
2018-05-23T20:12:07.963Z,98688.25
2018-05-23T20:14:35.458Z,98691.72
2018-05-23T20:17:02.939Z,98701.19
2018-05-23T20:19:30.454Z,98696.97
2018-05-23T20:21:57.952Z,98699.74
2018-05-23T20:24:25.552Z,98701.95
2018-05-23T20:26:53.018Z,98702.88
2018-05-23T20:29:20.613Z,98706.44
2018-05-23T20:31:48.038Z,98711.34
2018-05-23T20:34:15.517Z,98703.38
2018-05-23T20:36:43.012Z,98704.58
2018-05-23T20:39:12.760Z,98701.25
2018-05-23T20:41:40.370Z,98694.59
2018-05-23T20:44:07.942Z,98699.50
2018-05-23T20:46:35.487Z,98700.14
2018-05-23T20:49:02.983Z,98703.88
2018-05-23T20:51:30.494Z,98716.06
2018-05-23T20:53:57.979Z,98705.25
2018-05-23T20:56:25.482Z,98705.24
2018-05-23T20:58:53.023Z,98707.02
2018-05-23T21:01:20.523Z,98705.27
2018-05-23T21:03:48.059Z,98708.03
2018-05-23T21:06:15.583Z,98711.17
2018-05-23T21:08:43.161Z,98713.87
2018-05-23T21:11:10.654Z,98717.00
2018-05-23T21:13:38.212Z,98714.14
2018-05-23T21:16:05.707Z,98714.98
2018-05-23T21:18:33.191Z,98720.13
2018-05-23T21:21:00.690Z,98712.62
2018-05-23T21:23:28.162Z,98717.77
2018-05-23T21:25:55.694Z,98718.27
2018-05-23T21:28:23.175Z,98721.70
2018-05-23T21:30:50.698Z,98716.02
2018-05-23T21:33:18.162Z,98719.75
2018-05-23T21:35:45.683Z,98722.55
2018-05-23T21:38:13.206Z,98720.70
2018-05-23T21:40:40.794Z,98720.59
2018-05-23T21:43:08.265Z,98723.91
2018-05-23T21:45:35.766Z,98724.40
2018-05-23T21:48:03.303Z,98718.89
2018-05-23T21:50:30.770Z,98717.89
2018-05-23T21:52:58.282Z,98722.03
2018-05-23T21:55:25.839Z,98721.43
2018-05-23T21:57:53.355Z,98716.11
2018-05-23T22:00:20.847Z,98718.63
2018-05-23T22:02:48.340Z,98717.28
2018-05-23T22:05:15.810Z,98717.89
2018-05-23T22:07:43.294Z,98714.94
2018-05-23T22:10:10.770Z,98712.98
2018-05-23T22:12:38.394Z,98717.97
2018-05-23T22:15:05.918Z,98710.11
2018-05-23T22:17:33.403Z,98716.02
2018-05-23T22:20:00.882Z,98707.07
2018-05-23T22:22:28.446Z,98703.20
2018-05-23T22:24:55.890Z,98701.51
2018-05-23T22:27:23.377Z,98701.58
2018-05-23T22:29:51.030Z,98703.52
2018-05-23T22:32:18.520Z,98702.08
2018-05-23T22:34:46.034Z,98705.03
2018-05-23T22:37:13.517Z,98712.70
2018-05-23T22:39:40.986Z,98715.17
2018-05-23T22:42:08.486Z,98720.06
2018-05-23T22:44:35.959Z,98720.66
2018-05-23T22:47:03.451Z,98727.27
2018-05-23T22:49:30.998Z,98718.81
2018-05-23T22:51:58.493Z,98710.02
2018-05-23T22:54:26.036Z,98713.31
2018-05-23T22:56:53.584Z,98712.13
2018-05-23T22:59:21.079Z,98708.52
2018-05-23T23:01:48.574Z,98712.89
2018-05-23T23:04:16.063Z,98711.87
2018-05-23T23:06:43.611Z,98715.16
2018-05-23T23:09:11.115Z,98712.13
2018-05-23T23:11:38.622Z,98708.41
2018-05-23T23:14:06.190Z,98708.77
2018-05-23T23:16:33.747Z,98716.03
2018-05-23T23:19:01.322Z,98712.40
2018-05-23T23:21:28.791Z,98718.49
2018-05-23T23:23:56.331Z,98713.50
2018-05-23T23:26:23.887Z,98704.86
2018-05-23T23:28:51.402Z,98709.68
2018-05-23T23:31:18.878Z,98708.33
2018-05-23T23:33:46.374Z,98712.89
2018-05-23T23:36:13.898Z,98709.92
2018-05-23T23:38:41.387Z,98717.54
2018-05-23T23:41:08.957Z,98717.03
2018-05-23T23:43:36.452Z,98722.27
2018-05-23T23:46:03.932Z,98722.88
2018-05-23T23:48:31.427Z,98724.56
2018-05-23T23:50:58.894Z,98728.70
2018-05-23T23:53:26.429Z,98729.56
2018-05-23T23:55:53.894Z,98737.08
2018-05-23T23:58:21.362Z,98736.30
